Haddon Heights, New Jersey
Current Conditions -  °F | °C
As of 1:54 PM on Thursday 30 Oct 2014 (Local Time) from KPHL Reporting Station
Broken Clouds Broken Clouds  
Wind Chill: 59°   Ceiling: 7000
Heat Index: 59°   Visibility: 10mi
Dew Point: 38°   Wind: 8mph
Humidity: 46%   Direction: 320°NW
Pressure: 30"   Gusts: 17mph
Location:  39.88°N, 75.06°W
Report Text: KPHL 301754Z 32007G15KT 300V010 10SM SCT044 BKN070 15/03 A3000 RMK AO2 SLP158 T01500033 10156 20083 58011
Loading
Personal Weather Stations






























Interactive Weather Map
Tropical Storm Tracking
New forecast layout! Learn more

10-Day Weather Forecast

Advertisements
Track Severe Weather on mobile